createdAt,value
2022-10-12T00:02:13.922Z,101421.66
2022-10-12T00:05:00.862Z,101421.28
2022-10-12T00:07:47.830Z,101406.59
2022-10-12T00:10:34.833Z,101413.41
2022-10-12T00:13:15.197Z,101410.09
2022-10-12T00:16:01.837Z,101411.25
2022-10-12T00:18:42.589Z,101403.03
2022-10-12T00:21:30.866Z,101409.91
2022-10-12T00:24:17.819Z,101403.00
2022-10-12T00:27:04.876Z,101397.28
2022-10-12T00:29:44.853Z,101403.69
2022-10-12T00:32:25.292Z,101399.97
2022-10-12T00:35:11.822Z,101401.13
2022-10-12T00:38:02.796Z,101388.91
2022-10-12T00:40:42.994Z,101396.72
2022-10-12T00:43:40.774Z,101399.50
2022-10-12T00:46:35.980Z,101392.16
2022-10-12T00:49:30.806Z,101391.50
2022-10-12T00:52:22.799Z,101391.69
2022-10-12T00:55:04.443Z,101389.91
2022-10-12T00:57:50.794Z,101386.31
2022-10-12T01:00:32.676Z,101388.72
2022-10-12T01:03:22.800Z,101386.81
2022-10-12T01:06:10.785Z,101384.25
2022-10-12T01:08:52.459Z,101384.75
2022-10-12T01:11:39.761Z,101384.78
2022-10-12T01:14:19.871Z,101393.16
2022-10-12T01:17:20.951Z,101389.72
2022-10-12T01:20:22.859Z,101386.75
2022-10-12T01:23:49.728Z,101387.44
2022-10-12T01:27:06.724Z,101387.25
2022-10-12T01:30:11.738Z,101391.34
2022-10-12T01:33:01.798Z,101379.91
2022-10-12T01:36:14.758Z,101386.63
2022-10-12T01:39:21.727Z,101380.72
2022-10-12T01:42:14.766Z,101377.97
2022-10-12T01:44:54.825Z,101368.66
2022-10-12T01:47:44.725Z,101376.31
2022-10-12T01:50:26.824Z,101383.00
2022-10-12T01:53:30.737Z,101383.00
2022-10-12T01:56:16.846Z,101391.31
2022-10-12T01:59:14.689Z,101394.75
2022-10-12T02:02:03.840Z,101392.28
2022-10-12T02:05:03.682Z,101389.66
2022-10-12T02:07:50.725Z,101396.03
2022-10-12T02:10:38.481Z,101401.09
2022-10-12T02:13:28.692Z,101398.31
2022-10-12T02:16:15.332Z,101399.28
2022-10-12T02:19:07.702Z,101399.28
2022-10-12T02:21:56.687Z,101397.66
2022-10-12T02:24:48.670Z,101402.69
2022-10-12T02:27:29.957Z,101397.28
2022-10-12T02:30:21.109Z,101400.38
2022-10-12T02:33:13.396Z,101399.56
2022-10-12T02:36:11.630Z,101398.13
2022-10-12T02:39:11.807Z,101403.50
2022-10-12T02:41:55.683Z,101409.72
2022-10-12T02:44:46.654Z,101416.66
2022-10-12T02:47:35.893Z,101406.50
2022-10-12T02:50:24.669Z,101418.78
2022-10-12T02:53:05.835Z,101425.19
2022-10-12T02:55:56.638Z,101416.50
2022-10-12T02:58:43.626Z,101418.53
2022-10-12T03:01:24.079Z,101414.41
2022-10-12T03:04:10.598Z,101415.03
2022-10-12T03:25:30.425Z,101396.03
2022-10-12T03:28:10.839Z,101405.19
2022-10-12T03:30:58.421Z,101400.94
2022-10-12T03:33:38.840Z,101397.97
2022-10-12T03:36:25.462Z,101398.88
2022-10-12T03:39:05.869Z,101400.34
2022-10-12T03:41:52.414Z,101403.13
2022-10-12T03:44:32.796Z,101403.56
2022-10-12T03:47:19.409Z,101413.72
2022-10-12T03:50:06.427Z,101415.19
2022-10-12T03:52:53.382Z,101409.78
2022-10-12T03:55:33.994Z,101417.47
2022-10-12T03:58:20.355Z,101414.66
2022-10-12T04:01:07.457Z,101422.50
2022-10-12T04:03:54.396Z,101419.53
2022-10-12T04:06:34.773Z,101419.31
2022-10-12T04:09:21.353Z,101415.13
2022-10-12T04:12:01.976Z,101419.69
2022-10-12T04:14:48.367Z,101411.38
2022-10-12T04:17:28.845Z,101419.75
2022-10-12T04:20:15.364Z,101421.44
2022-10-12T04:23:02.386Z,101428.16
2022-10-12T04:25:49.442Z,101426.22
2022-10-12T04:28:29.412Z,101430.78
2022-10-12T04:31:09.737Z,101433.06
2022-10-12T04:33:56.382Z,101432.59
2022-10-12T04:36:36.735Z,101417.72
2022-10-12T04:39:23.358Z,101416.19
2022-10-12T04:42:03.923Z,101416.41
2022-10-12T04:44:50.294Z,101400.06
2022-10-12T04:47:30.691Z,101404.50
2022-10-12T04:50:18.327Z,101411.66
2022-10-12T04:53:05.423Z,101421.31
2022-10-12T04:55:45.345Z,101411.16
2022-10-12T04:58:25.750Z,101416.03
2022-10-12T05:01:12.393Z,101421.56
2022-10-12T05:03:59.267Z,101420.84
2022-10-12T05:06:39.473Z,101424.44
2022-10-12T05:09:19.320Z,101431.78
2022-10-12T05:11:59.694Z,101436.13
2022-10-12T05:14:46.317Z,101440.38
2022-10-12T05:17:26.698Z,101442.25
2022-10-12T05:20:13.275Z,101440.59
2022-10-12T05:22:53.692Z,101449.75
2022-10-12T05:25:42.322Z,101451.81
2022-10-12T05:28:29.372Z,101451.13
2022-10-12T05:31:09.427Z,101456.88
2022-10-12T05:33:56.292Z,101464.72
2022-10-12T05:36:36.380Z,101455.59
2022-10-12T05:39:23.268Z,101462.47
2022-10-12T05:42:03.340Z,101469.75
2022-10-12T05:44:50.280Z,101467.31
2022-10-12T05:47:37.497Z,101469.75
2022-10-12T05:50:17.693Z,101475.75
2022-10-12T05:53:04.239Z,101485.84
2022-10-12T05:55:56.174Z,101487.66
2022-10-12T05:58:44.272Z,101488.94
2022-10-12T06:01:24.693Z,101494.19
2022-10-12T06:04:11.253Z,101502.72
2022-10-12T06:06:51.670Z,101498.38
2022-10-12T06:09:38.229Z,101497.91
2022-10-12T06:12:18.673Z,101501.16
2022-10-12T06:15:05.258Z,101503.53
2022-10-12T06:17:52.250Z,101507.19
2022-10-12T06:20:39.234Z,101511.00
2022-10-12T06:23:34.245Z,101503.81
2022-10-12T06:26:14.666Z,101519.78
2022-10-12T06:29:01.215Z,101506.59
2022-10-12T06:31:51.671Z,101519.13
2022-10-12T06:34:31.305Z,101509.78
2022-10-12T06:37:44.300Z,101514.25
2022-10-12T06:40:18.346Z,101515.66
2022-10-12T06:43:09.241Z,101513.78
2022-10-12T06:45:49.565Z,101504.88
2022-10-12T06:48:36.193Z,101517.63
2022-10-12T06:51:16.309Z,101517.75
2022-10-12T06:54:03.232Z,101514.97
2022-10-12T06:56:54.287Z,101513.03
2022-10-12T06:59:36.636Z,101522.94
2022-10-12T07:02:26.204Z,101519.13
2022-10-12T07:05:14.220Z,101522.34
2022-10-12T07:08:01.153Z,101517.94
2022-10-12T07:10:48.183Z,101512.03
2022-10-12T07:13:28.310Z,101524.28
2022-10-12T07:16:15.161Z,101520.19
2022-10-12T07:19:02.143Z,101527.88
2022-10-12T07:21:49.150Z,101524.13
2022-10-12T07:24:43.204Z,101526.34
2022-10-12T07:27:23.691Z,101514.97
2022-10-12T07:30:10.162Z,101529.81
2022-10-12T07:32:50.689Z,101522.34
2022-10-12T07:35:51.481Z,101528.66
2022-10-12T07:38:44.144Z,101524.34
2022-10-12T07:41:24.263Z,101528.22
2022-10-12T07:44:11.138Z,101529.25
2022-10-12T07:46:51.329Z,101528.47
2022-10-12T07:49:38.165Z,101519.75
2022-10-12T07:52:25.154Z,101533.13
2022-10-12T07:55:12.109Z,101533.13
2022-10-12T07:57:59.095Z,101524.66
2022-10-12T08:00:47.102Z,101529.38
2022-10-12T08:03:34.117Z,101535.38
2022-10-12T08:06:24.088Z,101534.66
2022-10-12T08:09:05.212Z,101529.88
2022-10-12T08:11:52.130Z,101524.59
2022-10-12T08:14:39.129Z,101514.19
2022-10-12T08:17:19.487Z,101514.13
2022-10-12T08:20:06.066Z,101517.50
2022-10-12T08:22:53.086Z,101519.91
2022-10-12T08:25:40.156Z,101519.81
2022-10-12T08:28:20.147Z,101524.41
2022-10-12T08:31:00.747Z,101528.38
2022-10-12T08:33:47.096Z,101526.25
2022-10-12T08:36:28.107Z,101537.91
2022-10-12T08:39:15.102Z,101533.03
2022-10-12T08:42:17.338Z,101525.38
2022-10-12T08:45:36.083Z,101533.28
2022-10-12T08:48:34.339Z,101533.03
2022-10-12T08:51:26.049Z,101528.19
2022-10-12T08:54:21.100Z,101532.66
2022-10-12T08:57:09.070Z,101527.75
2022-10-12T08:59:56.208Z,101513.31
2022-10-12T09:02:58.082Z,101531.81
2022-10-12T09:06:00.345Z,101532.56
2022-10-12T09:09:02.070Z,101525.31
2022-10-12T09:12:15.886Z,101527.28
2022-10-12T09:15:07.098Z,101524.56
2022-10-12T09:17:55.687Z,101527.47
2022-10-12T09:20:47.068Z,101523.28
2022-10-12T09:23:45.053Z,101526.41
2022-10-12T09:26:37.578Z,101533.63
2022-10-12T09:29:33.019Z,101522.28
2022-10-12T09:32:47.052Z,101529.97
2022-10-12T09:35:34.033Z,101523.09
2022-10-12T09:38:14.521Z,101523.50
2022-10-12T09:41:01.021Z,101527.75
2022-10-12T09:43:41.810Z,101532.25
2022-10-12T09:46:30.008Z,101531.50
2022-10-12T09:49:17.053Z,101525.94
2022-10-12T09:52:06.126Z,101527.19
2022-10-12T09:55:03.591Z,101523.53
2022-10-12T09:57:49.130Z,101520.66
2022-10-12T10:00:39.016Z,101521.03
2022-10-12T10:03:31.757Z,101526.28
2022-10-12T10:06:19.014Z,101521.41
2022-10-12T10:09:05.968Z,101518.94
2022-10-12T10:11:46.432Z,101509.03
2022-10-12T10:14:33.017Z,101519.88
2022-10-12T10:17:23.986Z,101510.28
2022-10-12T10:20:11.980Z,101511.19
2022-10-12T10:22:58.996Z,101516.34
2022-10-12T10:25:46.116Z,101509.63
2022-10-12T10:28:31.978Z,101509.56
2022-10-12T10:31:21.580Z,101508.19
2022-10-12T10:34:28.964Z,101512.41
2022-10-12T10:37:26.971Z,101510.44
2022-10-12T10:40:09.041Z,101507.41
2022-10-12T10:42:59.958Z,101509.00
2022-10-12T10:45:51.078Z,101507.09
2022-10-12T10:48:54.962Z,101501.84
2022-10-12T10:52:07.977Z,101505.00
2022-10-12T10:54:55.958Z,101498.44
2022-10-12T10:57:42.954Z,101505.75
2022-10-12T11:00:38.522Z,101500.34
2022-10-12T11:03:49.936Z,101498.53
2022-10-12T11:06:38.927Z,101501.06
2022-10-12T11:09:40.937Z,101501.66
2022-10-12T11:12:36.242Z,101503.69
2022-10-12T11:15:34.043Z,101490.53
2022-10-12T11:18:25.886Z,101492.84
2022-10-12T11:21:18.916Z,101489.31
2022-10-12T11:24:22.903Z,101496.72
2022-10-12T11:27:52.796Z,101498.31
2022-10-12T11:30:47.916Z,101486.91
2022-10-12T11:33:35.260Z,101495.66
2022-10-12T11:36:26.902Z,101485.81
2022-10-12T11:39:22.626Z,101488.75
2022-10-12T11:42:21.751Z,101482.78
2022-10-12T11:45:08.883Z,101494.28
2022-10-12T11:47:54.692Z,101490.13
2022-10-12T11:50:52.882Z,101494.41
2022-10-12T11:53:33.226Z,101484.47
2022-10-12T11:56:40.961Z,101492.19
2022-10-12T11:59:52.859Z,101474.91
2022-10-12T12:02:50.012Z,101486.97
2022-10-12T12:05:39.892Z,101481.47
2022-10-12T12:08:55.889Z,101481.69
2022-10-12T12:11:42.846Z,101475.38
2022-10-12T12:14:28.938Z,101479.44
2022-10-12T12:17:29.309Z,101473.44
2022-10-12T12:20:53.922Z,101465.50
2022-10-12T12:23:48.847Z,101461.00
2022-10-12T12:26:43.835Z,101468.41
2022-10-12T12:29:34.842Z,101465.59
2022-10-12T12:32:21.841Z,101467.94
2022-10-12T12:35:02.350Z,101481.56
2022-10-12T12:37:48.854Z,101469.88
2022-10-12T12:40:29.719Z,101465.59
2022-10-12T12:43:47.950Z,101462.25
2022-10-12T12:47:06.005Z,101470.53
2022-10-12T12:50:14.827Z,101464.28
2022-10-12T12:53:21.091Z,101471.50
2022-10-12T12:56:31.833Z,101476.97
2022-10-12T12:59:29.040Z,101463.09
2022-10-12T13:02:26.815Z,101464.63
2022-10-12T13:05:10.193Z,101469.59
2022-10-12T13:08:15.799Z,101472.06
2022-10-12T13:11:17.764Z,101458.50
2022-10-12T13:14:18.909Z,101462.94
2022-10-12T13:17:44.079Z,101471.22
2022-10-12T13:20:38.785Z,101470.16
2022-10-12T13:23:32.787Z,101474.28
2022-10-12T13:26:25.912Z,101474.78
2022-10-12T13:29:08.744Z,101478.75
2022-10-12T13:31:59.773Z,101474.56
2022-10-12T13:34:49.883Z,101475.59
2022-10-12T13:37:38.759Z,101479.59
2022-10-12T13:40:42.959Z,101476.66
2022-10-12T13:43:34.758Z,101478.41
2022-10-12T13:46:16.882Z,101475.97
2022-10-12T13:49:04.777Z,101479.59
2022-10-12T13:51:44.915Z,101476.53
2022-10-12T13:54:32.736Z,101474.19
2022-10-12T13:57:38.759Z,101474.81
2022-10-12T14:00:25.230Z,101464.25
2022-10-12T14:03:17.736Z,101467.84
2022-10-12T14:06:04.792Z,101465.59
2022-10-12T14:08:44.799Z,101457.81
2022-10-12T14:11:33.753Z,101458.25
2022-10-12T14:14:36.695Z,101465.13
2022-10-12T14:17:26.874Z,101470.25
2022-10-12T14:20:43.740Z,101473.25
2022-10-12T14:23:29.804Z,101473.25
2022-10-12T14:26:30.682Z,101466.28
2022-10-12T14:29:33.130Z,101473.38
2022-10-12T14:32:19.723Z,101482.22
2022-10-12T14:35:35.818Z,101466.28
2022-10-12T14:38:48.706Z,101471.28
2022-10-12T14:41:56.786Z,101479.84
2022-10-12T14:44:52.678Z,101479.31
2022-10-12T14:47:39.885Z,101464.88
2022-10-12T14:50:27.690Z,101477.56
2022-10-12T14:53:22.680Z,101478.56
2022-10-12T14:56:03.086Z,101471.13
2022-10-12T14:58:49.726Z,101472.06
2022-10-12T15:01:30.235Z,101481.91
2022-10-12T15:04:16.688Z,101474.81
2022-10-12T15:06:57.154Z,101472.63
2022-10-12T15:09:43.665Z,101483.97
2022-10-12T15:27:23.948Z,101489.91
2022-10-12T15:30:04.871Z,101493.13
2022-10-12T15:32:51.964Z,101490.72
2022-10-12T15:35:34.948Z,101488.19
2022-10-12T15:38:21.973Z,101495.41
2022-10-12T15:41:09.967Z,101496.56
2022-10-12T15:43:50.270Z,101495.19
2022-10-12T15:46:36.957Z,101495.19
2022-10-12T15:49:19.713Z,101498.06
2022-10-12T15:52:01.076Z,101500.66
2022-10-12T15:54:49.046Z,101507.13
2022-10-12T15:57:29.081Z,101506.63
2022-10-12T16:00:16.941Z,101513.69
2022-10-12T16:03:03.976Z,101515.41
2022-10-12T16:05:46.097Z,101513.09
2022-10-12T16:08:32.944Z,101510.28
2022-10-12T16:11:15.257Z,101510.72
2022-10-12T16:14:02.902Z,101522.44
2022-10-12T16:16:43.387Z,101522.00
2022-10-12T16:19:29.907Z,101512.31
2022-10-12T16:22:10.364Z,101523.81
2022-10-12T16:24:57.019Z,101515.47
2022-10-12T16:27:50.910Z,101524.19
2022-10-12T16:30:37.900Z,101527.00
2022-10-12T16:33:24.940Z,101535.66
2022-10-12T16:36:22.953Z,101525.06
2022-10-12T16:39:03.176Z,101532.97
2022-10-12T16:41:49.930Z,101530.31
2022-10-12T16:44:36.898Z,101528.03
2022-10-12T16:47:23.922Z,101513.28
2022-10-12T16:50:04.002Z,101522.44
2022-10-12T16:52:50.893Z,101520.19
2022-10-12T16:55:37.905Z,101520.19
2022-10-12T16:58:24.859Z,101522.19
2022-10-12T17:01:11.962Z,101510.06
2022-10-12T17:03:55.298Z,101521.66
2022-10-12T17:06:42.894Z,101526.56
2022-10-12T17:09:23.313Z,101525.75
2022-10-12T17:12:09.833Z,101534.28
2022-10-12T17:14:56.901Z,101536.31
2022-10-12T17:17:36.939Z,101532.66
2022-10-12T17:20:23.871Z,101530.38
2022-10-12T17:23:10.839Z,101532.50
2022-10-12T17:26:05.836Z,101535.78
2022-10-12T17:28:53.936Z,101523.34
2022-10-12T17:31:42.088Z,101527.63
2022-10-12T17:34:47.428Z,101521.06
2022-10-12T17:37:36.064Z,101516.00
2022-10-12T17:40:20.211Z,101522.91
2022-10-12T17:43:21.553Z,101525.06
2022-10-12T17:46:01.159Z,101523.25
2022-10-12T17:48:47.838Z,101527.38
2022-10-12T17:51:27.937Z,101527.72
2022-10-12T17:54:15.820Z,101532.28
2022-10-12T17:56:56.091Z,101537.16
2022-10-12T17:59:42.851Z,101543.28
2022-10-12T18:02:22.913Z,101541.63
2022-10-12T18:05:09.813Z,101539.00
2022-10-12T18:07:49.952Z,101543.59
2022-10-12T18:10:36.798Z,101548.84
2022-10-12T18:13:16.941Z,101549.16
2022-10-12T18:16:03.816Z,101546.38
2022-10-12T18:18:51.778Z,101541.94
2022-10-12T18:21:33.191Z,101550.50
2022-10-12T18:24:23.774Z,101549.72
2022-10-12T18:27:10.898Z,101541.50
2022-10-12T18:29:50.799Z,101547.78
2022-10-12T18:32:38.804Z,101545.00
2022-10-12T18:35:18.870Z,101536.97
2022-10-12T18:38:05.807Z,101538.13
2022-10-12T18:40:47.584Z,101538.63
2022-10-12T18:43:34.788Z,101541.09
2022-10-12T18:46:19.990Z,101538.94
2022-10-12T18:49:11.756Z,101541.75
2022-10-12T18:51:59.790Z,101536.03
2022-10-12T18:54:40.252Z,101539.47
2022-10-12T18:57:31.134Z,101533.25
2022-10-12T19:00:12.442Z,101542.72
2022-10-12T19:02:58.742Z,101533.59
2022-10-12T19:05:39.170Z,101533.06
2022-10-12T19:08:25.770Z,101531.94
2022-10-12T19:11:08.527Z,101545.19
2022-10-12T19:13:55.730Z,101533.91
2022-10-12T19:16:36.181Z,101540.44
2022-10-12T19:19:27.705Z,101535.84
2022-10-12T19:22:08.117Z,101532.78
2022-10-12T19:24:54.735Z,101537.00
2022-10-12T19:27:48.704Z,101534.91
2022-10-12T19:30:35.816Z,101526.09
2022-10-12T19:33:15.674Z,101535.91
2022-10-12T19:35:56.168Z,101527.25
2022-10-12T19:38:42.709Z,101531.00
2022-10-12T19:41:29.709Z,101523.47
2022-10-12T19:44:17.704Z,101517.41
2022-10-12T19:47:00.083Z,101522.34
2022-10-12T19:49:46.717Z,101531.00
2022-10-12T19:52:33.686Z,101529.22
2022-10-12T19:55:13.922Z,101527.59
2022-10-12T19:58:00.715Z,101530.88
2022-10-12T20:00:49.699Z,101533.66
2022-10-12T20:03:37.696Z,101532.97
2022-10-12T20:06:17.781Z,101527.09
2022-10-12T20:09:07.725Z,101528.41
2022-10-12T20:11:54.665Z,101524.47
2022-10-12T20:14:41.655Z,101526.13
2022-10-12T20:17:28.651Z,101522.53
2022-10-12T20:20:15.674Z,101522.03
2022-10-12T20:22:55.797Z,101527.44
2022-10-12T20:25:56.626Z,101522.22
2022-10-12T20:28:44.726Z,101525.78
2022-10-12T20:31:24.980Z,101523.19
2022-10-12T20:34:11.629Z,101519.25
2022-10-12T20:37:05.628Z,101512.22
2022-10-12T20:39:49.400Z,101515.31
2022-10-12T20:42:36.638Z,101519.25
2022-10-12T20:45:23.641Z,101516.44
2022-10-12T20:48:03.751Z,101519.09
2022-10-12T20:50:50.594Z,101520.41
2022-10-12T20:53:37.577Z,101520.41
2022-10-12T20:56:18.305Z,101524.81
2022-10-12T20:59:06.614Z,101516.00
2022-10-12T21:01:53.610Z,101517.44
2022-10-12T21:04:40.622Z,101519.91
2022-10-12T21:07:27.566Z,101524.47
2022-10-12T21:10:14.624Z,101539.22
2022-10-12T21:13:01.602Z,101521.25
2022-10-12T21:15:41.681Z,101537.09
2022-10-12T21:18:28.599Z,101526.28
2022-10-12T21:21:18.624Z,101525.31
2022-10-12T21:24:07.571Z,101521.72
2022-10-12T21:26:47.681Z,101529.06
2022-10-12T21:29:34.549Z,101529.38
2022-10-12T21:32:21.611Z,101528.41
2022-10-12T21:35:08.609Z,101530.88
2022-10-12T21:37:48.762Z,101523.34
2022-10-12T21:40:35.588Z,101523.34
2022-10-12T21:43:22.626Z,101516.00
2022-10-12T21:46:10.680Z,101516.31
2022-10-12T21:48:58.565Z,101522.84
2022-10-12T21:51:45.552Z,101522.84
2022-10-12T21:54:32.627Z,101523.84
2022-10-12T21:57:19.509Z,101525.47
2022-10-12T21:59:59.790Z,101520.38
2022-10-12T22:02:52.506Z,101511.88
2022-10-12T22:05:39.551Z,101512.38
2022-10-12T22:08:26.507Z,101506.00
2022-10-12T22:11:12.603Z,101505.66
2022-10-12T22:14:04.531Z,101507.00
2022-10-12T22:16:44.643Z,101500.94
2022-10-12T22:19:31.497Z,101508.13
2022-10-12T22:22:18.626Z,101502.56
2022-10-12T22:25:05.620Z,101511.56
2022-10-12T22:27:52.539Z,101496.16
2022-10-12T22:30:42.501Z,101501.56
2022-10-12T22:33:30.517Z,101506.81
2022-10-12T22:36:12.602Z,101508.09
2022-10-12T22:38:59.530Z,101504.03
2022-10-12T22:41:39.579Z,101499.25
2022-10-12T22:44:26.470Z,101499.91
2022-10-12T22:47:06.659Z,101500.91
2022-10-12T22:49:53.474Z,101506.81
2022-10-12T22:52:33.666Z,101503.03
2022-10-12T22:55:20.477Z,101491.44
2022-10-12T22:58:00.557Z,101493.53
2022-10-12T23:00:48.532Z,101503.34
2022-10-12T23:03:28.532Z,101502.53
2022-10-12T23:06:25.456Z,101497.97
2022-10-12T23:09:12.446Z,101502.38
2022-10-12T23:11:52.852Z,101495.50
2022-10-12T23:14:39.475Z,101492.25
2022-10-12T23:17:19.797Z,101492.22
2022-10-12T23:20:06.475Z,101495.81
2022-10-12T23:22:46.800Z,101504.00
2022-10-12T23:25:33.409Z,101497.44
2022-10-12T23:28:20.562Z,101506.75
2022-10-12T23:31:00.451Z,101500.06
2022-10-12T23:33:40.944Z,101503.81
2022-10-12T23:36:30.438Z,101502.16
2022-10-12T23:39:10.952Z,101497.44
2022-10-12T23:41:57.396Z,101497.44
2022-10-12T23:44:44.429Z,101502.31
2022-10-12T23:47:31.387Z,101502.13
2022-10-12T23:50:11.775Z,101493.84
2022-10-12T23:52:58.382Z,101503.25
2022-10-12T23:55:45.398Z,101501.00
2022-10-12T23:58:33.406Z,101505.22
